Christiana, Alabama
Current Conditions -  °F | °C
As of 2:53 PM on Friday 19 Dec 2014 (Local Time) from KANB Reporting Station
Clear Clear  
Wind Chill: 45°   Ceiling: Unl
Heat Index: 49°   Visibility: 10mi
Dew Point: 34°   Wind: 8mph
Humidity: 56%   Direction: 360°N
Pressure: 30.12"   Gusts: NA
Location:  33.4483°N, 85.6826°W
Report Text: KANB 192053Z AUTO 36007KT 10SM CLR 09/01 A3012 RMK AO2 SLP208 T00940011 58020
Loading
Personal Weather Stations






























Interactive Weather Map New forecast layout! Learn more

10-Day Weather Forecast

Advertisements
Track Severe Weather on mobile